Time;durP1;ratioP1;P1;durP2;ratioP2;P2;SDS_P1;SDS_P2;PMS_P1;PMS_P2;Temp;Humidity;BMP_temperature;BMP_pressure;BME280_temperature;BME280_humidity;BME280_pressure;Samples;Min_cycle;Max_cycle;Signal;HPM_P1;HPM_P2
2023/05/06 00:02:07;;;;;;;0.80;0.80;;;15.70;99.90;;;;;;5013395;28;20213;-63
2023/05/06 00:04:35;;;;;;;0.90;0.90;;;15.70;99.90;;;;;;5013700;28;20624;-63
2023/05/06 00:07:02;;;;;;;0.98;0.98;;;15.80;99.90;;;;;;5012826;28;20205;-64
2023/05/06 00:09:28;;;;;;;0.90;0.90;;;15.70;99.90;;;;;;5011485;28;20243;-66
2023/05/06 00:11:55;;;;;;;0.88;0.80;;;15.70;99.90;;;;;;5012704;28;20240;-63
2023/05/06 00:14:22;;;;;;;0.87;0.87;;;15.70;99.90;;;;;;5013329;28;20209;-63
2023/05/06 00:16:49;;;;;;;0.70;0.70;;;15.60;99.90;;;;;;5012532;28;20209;-63
2023/05/06 00:19:16;;;;;;;0.90;0.90;;;15.50;99.90;;;;;;5029003;28;20192;-64
2023/05/06 00:21:44;;;;;;;0.85;0.85;;;15.60;99.90;;;;;;5044891;28;20220;-63
2023/05/06 00:24:11;;;;;;;0.70;0.70;;;15.50;99.90;;;;;;5051479;28;20212;-63
2023/05/06 00:26:38;;;;;;;0.80;0.80;;;15.50;99.90;;;;;;5050520;28;20708;-65
2023/05/06 00:29:05;;;;;;;0.80;0.80;;;15.40;99.90;;;;;;5043066;28;20234;-67
2023/05/06 00:31:32;;;;;;;0.80;0.80;;;15.30;99.90;;;;;;5043777;28;20216;-63
2023/05/06 00:33:58;;;;;;;1.00;1.00;;;15.20;99.90;;;;;;5052588;28;20583;-64
2023/05/06 00:36:25;;;;;;;0.70;0.70;;;15.20;99.90;;;;;;5052390;28;20218;-63
2023/05/06 00:38:54;;;;;;;0.90;0.90;;;15.20;99.90;;;;;;5052644;28;20218;-63
2023/05/06 00:41:20;;;;;;;0.90;0.90;;;15.20;99.90;;;;;;5050682;28;20351;-64
2023/05/06 00:43:47;;;;;;;0.80;0.80;;;15.20;99.90;;;;;;5051081;28;20208;-64
2023/05/06 00:46:16;;;;;;;1.27;0.75;;;15.20;99.90;;;;;;5051398;28;20295;-64
2023/05/06 00:48:44;;;;;;;1.10;0.82;;;15.10;99.90;;;;;;5051247;28;20229;-63
2023/05/06 00:51:11;;;;;;;0.77;0.77;;;15.20;99.90;;;;;;5050070;28;20868;-64
2023/05/06 00:53:39;;;;;;;0.80;0.80;;;15.20;99.90;;;;;;5051210;28;20206;-64
2023/05/06 00:56:08;;;;;;;0.70;0.70;;;15.10;99.90;;;;;;5048411;28;21476;-64
2023/05/06 00:58:35;;;;;;;0.70;0.70;;;15.20;99.90;;;;;;5030889;28;20626;-64
2023/05/06 01:01:03;;;;;;;0.70;0.70;;;15.20;99.90;;;;;;5030018;28;20231;-64
2023/05/06 01:03:30;;;;;;;0.90;0.90;;;15.20;99.90;;;;;;5031229;28;20610;-66
2023/05/06 01:06:07;;;;;;;0.63;0.63;;;15.20;99.90;;;;;;5030945;28;20212;-65
2023/05/06 01:08:39;;;;;;;0.98;0.88;;;15.20;99.90;;;;;;5030551;28;20247;-65
2023/05/06 01:11:13;;;;;;;0.80;0.80;;;15.20;99.90;;;;;;5029592;28;20224;-65
2023/05/06 01:13:47;;;;;;;1.10;1.10;;;15.10;99.90;;;;;;5030810;28;20298;-65
2023/05/06 01:16:16;;;;;;;0.90;0.90;;;15.10;99.90;;;;;;5030514;28;20266;-63
2023/05/06 01:18:44;;;;;;;0.90;0.90;;;15.00;99.90;;;;;;5030463;28;20671;-65
2023/05/06 01:21:13;;;;;;;1.50;0.80;;;15.00;99.90;;;;;;5029663;28;20238;-65
2023/05/06 01:23:56;;;;;;;0.90;0.90;;;15.10;99.90;;;;;;5030499;28;20695;-64
2023/05/06 01:26:23;;;;;;;0.70;0.70;;;15.00;99.90;;;;;;5030811;28;20296;-63
2023/05/06 01:28:50;;;;;;;0.90;0.90;;;15.00;99.90;;;;;;5031099;28;20219;-62
2023/05/06 01:31:24;;;;;;;0.77;0.77;;;15.00;99.90;;;;;;5030049;28;20695;-64
2023/05/06 01:34:05;;;;;;;0.85;0.85;;;14.90;99.90;;;;;;5030626;28;20299;-64
2023/05/06 01:36:40;;;;;;;0.90;0.90;;;14.90;99.90;;;;;;5030851;28;20259;-65
2023/05/06 01:39:16;;;;;;;0.80;0.80;;;14.80;99.90;;;;;;5030418;28;20204;-63
2023/05/06 01:41:47;;;;;;;1.00;1.00;;;14.70;99.90;;;;;;5030384;28;20236;-63
2023/05/06 01:44:16;;;;;;;1.08;1.08;;;14.70;99.90;;;;;;5033102;28;20212;-62
2023/05/06 01:46:44;;;;;;;1.10;1.03;;;14.70;99.90;;;;;;5034667;28;20204;-63
2023/05/06 01:49:14;;;;;;;0.90;0.90;;;14.60;99.90;;;;;;5030888;28;20212;-64
2023/05/06 01:51:46;;;;;;;0.77;0.77;;;14.60;99.90;;;;;;5025420;28;20236;-64
2023/05/06 01:54:14;;;;;;;0.75;0.75;;;14.60;99.90;;;;;;5038561;28;20577;-64
2023/05/06 01:56:41;;;;;;;0.73;0.73;;;14.70;99.90;;;;;;5050757;28;20210;-64
2023/05/06 01:59:08;;;;;;;0.98;0.90;;;14.60;99.90;;;;;;5048933;28;20204;-63
2023/05/06 02:01:35;;;;;;;0.70;0.70;;;14.60;99.90;;;;;;5037859;28;20251;-64
2023/05/06 02:04:02;;;;;;;0.80;0.80;;;14.60;99.90;;;;;;5029872;28;20754;-64
2023/05/06 02:06:29;;;;;;;0.70;0.70;;;14.50;99.90;;;;;;5037683;28;20212;-64
2023/05/06 02:08:55;;;;;;;1.20;0.90;;;14.50;99.90;;;;;;5044530;28;20295;-63
2023/05/06 02:11:23;;;;;;;0.80;0.80;;;14.60;99.90;;;;;;5048935;28;20238;-64
2023/05/06 02:13:50;;;;;;;0.90;0.90;;;14.50;99.90;;;;;;5044609;28;20219;-64
2023/05/06 02:16:17;;;;;;;0.90;0.90;;;14.50;99.90;;;;;;5029692;28;20687;-63
2023/05/06 02:18:44;;;;;;;0.80;0.80;;;14.40;99.90;;;;;;5031071;28;20215;-65
2023/05/06 02:21:11;;;;;;;0.97;0.97;;;14.30;99.90;;;;;;5030362;28;20228;-64
2023/05/06 02:23:38;;;;;;;0.88;0.88;;;14.30;99.90;;;;;;5039620;28;20287;-64
2023/05/06 02:26:05;;;;;;;0.82;0.82;;;14.20;99.90;;;;;;5041384;28;20291;-64
2023/05/06 02:28:33;;;;;;;1.00;1.00;;;14.30;99.90;;;;;;5049486;28;20682;-64
2023/05/06 02:31:00;;;;;;;0.77;0.60;;;14.20;99.90;;;;;;5048758;28;20236;-64
2023/05/06 02:33:26;;;;;;;0.70;0.70;;;14.30;99.90;;;;;;5049418;28;20674;-64
2023/05/06 02:35:53;;;;;;;1.00;1.00;;;14.30;99.90;;;;;;5049681;28;20210;-65
2023/05/06 02:38:20;;;;;;;0.80;0.80;;;14.30;99.90;;;;;;5049879;28;20219;-65
2023/05/06 02:40:47;;;;;;;0.90;0.90;;;14.30;99.90;;;;;;5048730;28;20220;-64
2023/05/06 02:43:14;;;;;;;0.80;0.80;;;14.20;99.90;;;;;;5049838;28;20230;-64
2023/05/06 02:45:42;;;;;;;1.20;0.90;;;14.10;99.90;;;;;;5049653;28;20208;-65
2023/05/06 02:48:10;;;;;;;1.48;0.95;;;14.00;99.90;;;;;;5049596;28;20204;-66
2023/05/06 02:50:36;;;;;;;0.70;0.70;;;14.00;99.90;;;;;;5048526;28;20232;-66
2023/05/06 02:53:03;;;;;;;1.63;0.83;;;14.00;99.90;;;;;;5052237;28;20214;-62
2023/05/06 02:55:30;;;;;;;0.70;0.70;;;14.00;99.90;;;;;;5054117;28;20207;-65
2023/05/06 02:57:57;;;;;;;0.80;0.80;;;14.00;99.90;;;;;;5053790;28;20269;-65
2023/05/06 03:00:24;;;;;;;0.90;0.90;;;13.90;99.90;;;;;;5052281;28;20710;-64
2023/05/06 03:02:52;;;;;;;0.73;0.73;;;13.90;99.90;;;;;;5052977;28;20703;-64
2023/05/06 03:05:19;;;;;;;0.90;0.90;;;14.00;99.90;;;;;;5053430;28;20291;-63
2023/05/06 03:07:46;;;;;;;0.70;0.70;;;14.00;99.90;;;;;;5053535;28;20243;-63
2023/05/06 03:10:13;;;;;;;1.00;1.00;;;14.00;99.90;;;;;;5052179;28;20324;-63
2023/05/06 03:12:39;;;;;;;0.70;0.70;;;14.00;99.90;;;;;;5053062;28;20294;-63
2023/05/06 03:15:07;;;;;;;1.13;1.07;;;14.10;99.90;;;;;;5053119;28;20208;-62
2023/05/06 03:17:34;;;;;;;0.80;0.80;;;14.00;99.90;;;;;;5053235;28;20682;-63
2023/05/06 03:20:03;;;;;;;0.70;0.70;;;14.00;99.90;;;;;;5052313;28;20259;-62
2023/05/06 03:22:30;;;;;;;0.80;0.80;;;14.00;99.90;;;;;;5053426;28;20623;-61
2023/05/06 03:24:57;;;;;;;0.80;0.80;;;14.00;99.90;;;;;;5052105;28;20295;-62
2023/05/06 03:27:24;;;;;;;0.73;0.73;;;14.00;99.90;;;;;;5054322;28;20200;-62
2023/05/06 03:29:51;;;;;;;0.60;0.60;;;14.00;99.90;;;;;;5053198;28;20204;-63
2023/05/06 03:32:18;;;;;;;0.80;0.80;;;13.90;99.90;;;;;;5053981;28;20234;-63
2023/05/06 03:34:44;;;;;;;0.90;0.80;;;13.80;99.90;;;;;;5054509;28;20210;-62
2023/05/06 03:37:13;;;;;;;0.70;0.70;;;13.70;99.90;;;;;;5053551;28;20700;-62
2023/05/06 03:39:39;;;;;;;0.90;0.90;;;13.70;99.90;;;;;;5061253;28;20208;-63
2023/05/06 03:42:06;;;;;;;0.70;0.70;;;13.70;99.90;;;;;;5060552;28;20200;-63
2023/05/06 03:44:33;;;;;;;0.90;0.90;;;13.70;99.90;;;;;;5056057;28;20263;-63
2023/05/06 03:47:00;;;;;;;0.80;0.80;;;13.80;99.90;;;;;;5055772;28;20200;-63
2023/05/06 03:49:27;;;;;;;0.80;0.80;;;13.80;99.90;;;;;;5054154;28;20213;-63
2023/05/06 03:51:53;;;;;;;0.80;0.80;;;13.80;99.90;;;;;;5053441;28;20231;-63
2023/05/06 03:54:22;;;;;;;0.80;0.80;;;13.80;99.90;;;;;;5052692;28;20212;-63
2023/05/06 03:56:49;;;;;;;0.90;0.90;;;13.90;99.90;;;;;;5052400;28;20212;-63
2023/05/06 03:59:16;;;;;;;1.07;1.07;;;13.90;99.90;;;;;;5052033;28;20203;-63
2023/05/06 04:01:43;;;;;;;0.90;0.90;;;13.90;99.90;;;;;;5051055;28;20801;-63
2023/05/06 04:04:09;;;;;;;1.03;0.90;;;13.90;99.90;;;;;;5052412;28;20207;-63
2023/05/06 04:06:37;;;;;;;0.80;0.80;;;13.90;99.90;;;;;;5053150;28;20214;-63
2023/05/06 04:09:05;;;;;;;1.10;1.00;;;13.90;99.90;;;;;;5053072;28;20218;-64
2023/05/06 04:11:33;;;;;;;1.30;1.20;;;13.90;99.90;;;;;;5051003;28;20323;-63
2023/05/06 04:14:00;;;;;;;1.00;1.00;;;13.90;99.90;;;;;;5052153;28;20204;-64
2023/05/06 04:16:26;;;;;;;0.90;0.90;;;13.80;99.90;;;;;;5052333;28;20710;-64
2023/05/06 04:18:54;;;;;;;0.80;0.80;;;13.80;99.90;;;;;;5051882;28;20302;-64
2023/05/06 04:21:21;;;;;;;0.90;0.90;;;13.90;99.90;;;;;;5051024;28;20759;-64
2023/05/06 04:23:47;;;;;;;0.93;0.90;;;13.80;99.90;;;;;;5051971;28;20267;-63
2023/05/06 04:26:14;;;;;;;1.40;1.03;;;13.80;99.90;;;;;;5051778;28;20208;-63
2023/05/06 04:28:42;;;;;;;0.93;0.93;;;13.80;99.90;;;;;;5052118;28;20204;-63
2023/05/06 04:31:09;;;;;;;1.00;1.00;;;13.80;99.90;;;;;;5050726;28;20786;-64
2023/05/06 04:33:36;;;;;;;0.80;0.80;;;13.80;99.90;;;;;;5048031;28;20267;-64
2023/05/06 04:36:03;;;;;;;0.93;0.93;;;13.80;99.90;;;;;;5043373;28;20210;-64
2023/05/06 04:38:30;;;;;;;0.90;0.90;;;13.80;99.90;;;;;;5041767;28;20206;-65
2023/05/06 04:40:58;;;;;;;0.90;0.90;;;13.90;99.90;;;;;;5038792;28;20212;-64
2023/05/06 04:43:26;;;;;;;1.10;1.00;;;13.80;99.90;;;;;;5041241;28;20262;-65
2023/05/06 04:45:54;;;;;;;0.90;0.90;;;13.80;99.90;;;;;;5046936;28;20201;-64
2023/05/06 04:48:22;;;;;;;0.83;0.83;;;13.80;99.90;;;;;;5041058;28;20213;-63
2023/05/06 04:50:49;;;;;;;0.93;0.93;;;13.90;99.90;;;;;;5050327;28;20223;-64
2023/05/06 04:53:17;;;;;;;0.70;0.70;;;13.90;99.90;;;;;;5051269;28;20230;-64
2023/05/06 04:55:43;;;;;;;0.90;0.90;;;14.00;99.90;;;;;;5051534;28;20200;-65
2023/05/06 04:58:10;;;;;;;0.90;0.90;;;14.00;99.90;;;;;;5032952;28;20211;-66
2023/05/06 05:00:37;;;;;;;0.90;0.90;;;14.10;99.90;;;;;;4926782;28;21305;-65
2023/05/06 05:03:05;;;;;;;0.90;0.90;;;14.20;99.90;;;;;;4996689;28;20204;-65
2023/05/06 05:05:33;;;;;;;0.90;0.90;;;14.30;99.90;;;;;;5041085;28;20948;-65
2023/05/06 05:08:00;;;;;;;0.90;0.90;;;14.30;99.90;;;;;;5046066;28;20285;-65
2023/05/06 05:10:27;;;;;;;0.70;0.70;;;14.40;99.90;;;;;;5049874;28;20231;-64
2023/05/06 05:12:54;;;;;;;0.90;0.90;;;14.50;99.90;;;;;;5050913;28;20208;-65
2023/05/06 05:15:21;;;;;;;0.70;0.70;;;14.50;99.90;;;;;;5049383;28;20216;-64
2023/05/06 05:17:47;;;;;;;1.00;1.00;;;14.60;99.90;;;;;;5052061;28;20208;-65
2023/05/06 05:20:16;;;;;;;0.97;0.90;;;14.70;99.90;;;;;;5051238;28;20230;-63
2023/05/06 05:22:42;;;;;;;1.00;1.00;;;14.70;99.90;;;;;;5051643;28;20203;-64
2023/05/06 05:25:09;;;;;;;0.97;0.97;;;14.80;99.90;;;;;;5051552;28;20230;-65
2023/05/06 05:27:36;;;;;;;0.87;0.87;;;14.90;99.90;;;;;;5051613;28;20210;-61
2023/05/06 05:30:04;;;;;;;1.00;1.00;;;15.00;99.90;;;;;;5050715;28;20228;-64
2023/05/06 05:32:30;;;;;;;0.80;0.80;;;15.00;99.90;;;;;;5048162;28;20224;-64
2023/05/06 05:34:57;;;;;;;1.30;1.20;;;15.10;99.90;;;;;;5045574;28;20196;-64
2023/05/06 05:37:25;;;;;;;0.90;0.90;;;15.20;99.90;;;;;;5055621;28;20214;-64
2023/05/06 05:39:52;;;;;;;0.90;0.90;;;15.30;99.90;;;;;;5050271;28;20214;-64
2023/05/06 05:42:19;;;;;;;0.90;0.90;;;15.30;99.90;;;;;;5050452;28;20208;-64
2023/05/06 05:44:46;;;;;;;1.00;1.00;;;15.40;99.90;;;;;;5050659;28;20211;-65
2023/05/06 05:47:13;;;;;;;0.93;0.93;;;15.40;99.90;;;;;;5050245;28;20291;-62
2023/05/06 05:49:40;;;;;;;0.97;0.97;;;15.40;99.90;;;;;;5049672;28;20219;-62
2023/05/06 05:52:08;;;;;;;1.00;1.00;;;15.50;99.90;;;;;;5050066;28;20846;-65
2023/05/06 05:54:36;;;;;;;0.80;0.80;;;15.60;99.90;;;;;;5048797;28;20208;-65
2023/05/06 05:57:03;;;;;;;0.70;0.70;;;15.70;99.90;;;;;;5050445;28;20238;-64
2023/05/06 05:59:31;;;;;;;1.10;0.93;;;15.70;99.90;;;;;;5049428;28;20218;-64
2023/05/06 06:01:58;;;;;;;0.80;0.80;;;15.80;99.90;;;;;;5049523;28;20250;-64
2023/05/06 06:04:25;;;;;;;1.10;1.00;;;15.90;99.90;;;;;;5047874;28;20303;-64
2023/05/06 06:06:52;;;;;;;0.97;0.97;;;15.90;99.90;;;;;;5041880;28;20212;-64
2023/05/06 06:09:19;;;;;;;0.97;0.97;;;16.00;99.90;;;;;;5049368;28;20674;-64
2023/05/06 06:11:48;;;;;;;0.80;0.80;;;16.10;99.90;;;;;;5049440;28;20224;-63
2023/05/06 06:14:14;;;;;;;0.83;0.83;;;16.20;99.90;;;;;;5050487;28;20200;-62
2023/05/06 06:16:42;;;;;;;0.68;0.68;;;16.30;99.90;;;;;;5051975;28;20200;-62
2023/05/06 06:19:09;;;;;;;0.63;0.63;;;16.40;99.90;;;;;;5049989;28;20200;-62
2023/05/06 06:21:36;;;;;;;0.70;0.70;;;16.60;99.90;;;;;;5050161;28;20320;-61
2023/05/06 06:24:03;;;;;;;0.70;0.70;;;16.70;99.90;;;;;;5044484;28;20205;-63
2023/05/06 06:26:30;;;;;;;0.70;0.70;;;16.80;99.90;;;;;;5031342;28;20210;-63
2023/05/06 06:28:58;;;;;;;0.80;0.80;;;16.90;99.90;;;;;;5033933;28;20291;-62
2023/05/06 06:31:25;;;;;;;1.20;1.00;;;17.00;99.90;;;;;;5034706;28;20230;-63
2023/05/06 06:33:52;;;;;;;0.80;0.80;;;17.10;99.90;;;;;;5035324;28;20204;-63
2023/05/06 06:36:19;;;;;;;0.98;0.90;;;17.20;99.90;;;;;;5034717;28;20208;-63
2023/05/06 06:38:45;;;;;;;0.70;0.70;;;17.30;99.90;;;;;;5034925;28;20211;-63
2023/05/06 06:41:12;;;;;;;0.90;0.90;;;17.40;99.90;;;;;;5034549;28;20737;-63
2023/05/06 06:43:39;;;;;;;0.93;0.93;;;17.60;99.90;;;;;;5035052;28;20219;-61
2023/05/06 06:46:07;;;;;;;1.10;1.00;;;17.70;99.90;;;;;;5033831;28;20694;-64
2023/05/06 06:48:34;;;;;;;0.87;0.87;;;17.90;99.90;;;;;;5034051;28;20666;-62
2023/05/06 06:51:01;;;;;;;1.10;1.10;;;18.00;99.90;;;;;;5044400;28;20219;-64
2023/05/06 06:53:28;;;;;;;0.80;0.80;;;18.10;99.90;;;;;;5036934;28;20278;-63
2023/05/06 06:55:55;;;;;;;1.00;0.90;;;18.20;99.90;;;;;;5036812;28;20250;-65
2023/05/06 06:58:22;;;;;;;0.80;0.80;;;18.30;99.90;;;;;;5033336;28;20230;-64
2023/05/06 07:00:48;;;;;;;0.80;0.80;;;18.50;99.90;;;;;;5033746;28;20221;-64
2023/05/06 07:03:18;;;;;;;0.80;0.80;;;18.60;99.90;;;;;;5034212;28;20841;-64
2023/05/06 07:05:45;;;;;;;0.98;0.98;;;18.70;99.90;;;;;;5041860;28;20248;-65
2023/05/06 07:08:12;;;;;;;0.98;0.98;;;18.60;99.90;;;;;;5042723;28;20197;-65
2023/05/06 07:10:39;;;;;;;0.80;0.80;;;18.40;99.90;;;;;;5053318;28;20231;-66
2023/05/06 07:13:05;;;;;;;0.75;0.75;;;18.40;99.90;;;;;;5054069;28;20228;-64
2023/05/06 07:15:32;;;;;;;0.90;0.90;;;18.60;99.90;;;;;;5054598;28;20208;-65
2023/05/06 07:17:59;;;;;;;0.90;0.90;;;18.80;99.90;;;;;;5054280;28;20613;-64
2023/05/06 07:20:27;;;;;;;0.95;0.95;;;18.70;99.90;;;;;;5044052;28;20230;-65
2023/05/06 07:22:54;;;;;;;0.93;0.90;;;18.80;99.90;;;;;;5054243;28;20294;-65
2023/05/06 07:25:21;;;;;;;1.13;1.10;;;19.00;99.90;;;;;;5053920;28;20564;-65
2023/05/06 07:27:47;;;;;;;0.95;0.95;;;19.00;99.90;;;;;;5054180;28;20203;-64
2023/05/06 07:30:15;;;;;;;1.10;1.10;;;18.90;99.90;;;;;;5052493;28;20259;-65
2023/05/06 07:32:42;;;;;;;1.00;1.00;;;18.80;99.90;;;;;;5035864;28;20234;-65
2023/05/06 07:35:10;;;;;;;0.90;0.90;;;18.50;99.90;;;;;;5039656;28;20197;-65
2023/05/06 07:37:38;;;;;;;1.30;1.20;;;18.50;99.90;;;;;;5033989;28;20212;-64
2023/05/06 07:40:06;;;;;;;1.00;1.00;;;18.50;99.90;;;;;;5032199;28;20220;-64
2023/05/06 07:42:33;;;;;;;1.20;1.20;;;18.70;99.90;;;;;;5041224;28;20200;-64
2023/05/06 07:45:00;;;;;;;1.00;1.00;;;18.60;99.90;;;;;;5047692;28;20341;-64
2023/05/06 07:47:29;;;;;;;0.97;0.97;;;18.70;99.90;;;;;;5052627;28;20208;-63
2023/05/06 07:49:56;;;;;;;1.07;1.07;;;18.60;99.90;;;;;;5051650;28;20211;-63
2023/05/06 07:52:23;;;;;;;1.00;1.00;;;18.90;99.90;;;;;;5034150;28;20228;-62
2023/05/06 07:54:51;;;;;;;1.20;1.10;;;19.00;99.90;;;;;;5032534;28;20201;-62
2023/05/06 07:57:18;;;;;;;1.10;1.10;;;19.00;99.90;;;;;;5032306;28;20205;-62
2023/05/06 07:59:48;;;;;;;1.20;1.20;;;18.70;99.90;;;;;;5032100;28;20295;-63
2023/05/06 08:02:15;;;;;;;1.17;1.17;;;18.80;99.90;;;;;;5032832;28;20196;-62
2023/05/06 08:04:41;;;;;;;1.20;1.20;;;19.10;99.90;;;;;;5031825;28;20204;-62
2023/05/06 08:07:08;;;;;;;1.20;1.20;;;19.30;99.90;;;;;;5031234;28;20205;-65
2023/05/06 08:09:35;;;;;;;1.10;1.10;;;19.50;99.90;;;;;;5032431;28;20207;-64
2023/05/06 08:12:04;;;;;;;1.25;1.20;;;19.30;99.90;;;;;;5032956;28;20294;-63
2023/05/06 08:14:31;;;;;;;1.10;1.10;;;19.20;99.90;;;;;;5032533;28;20205;-64
2023/05/06 08:16:58;;;;;;;1.20;1.20;;;19.30;99.90;;;;;;5032216;28;20212;-64
2023/05/06 08:19:25;;;;;;;1.27;1.27;;;19.40;99.90;;;;;;5036152;28;20529;-63
2023/05/06 08:21:52;;;;;;;1.38;1.30;;;19.50;99.90;;;;;;5032992;28;20868;-63
2023/05/06 08:24:18;;;;;;;0.90;0.90;;;19.40;99.90;;;;;;5035545;28;20204;-62
2023/05/06 08:26:45;;;;;;;1.03;1.03;;;19.60;99.90;;;;;;5032484;28;20205;-64
2023/05/06 08:29:13;;;;;;;0.90;0.90;;;19.70;99.90;;;;;;5031437;28;20675;-63
2023/05/06 08:31:40;;;;;;;1.15;1.15;;;19.90;99.90;;;;;;5032144;28;20243;-63
2023/05/06 08:34:07;;;;;;;1.08;1.08;;;20.00;99.90;;;;;;5032009;28;20211;-63
2023/05/06 08:36:34;;;;;;;1.15;1.10;;;20.10;99.90;;;;;;5032125;28;20219;-64
2023/05/06 08:39:01;;;;;;;0.90;0.90;;;20.10;99.90;;;;;;5031702;28;20211;-63
2023/05/06 08:41:30;;;;;;;1.30;1.30;;;20.20;99.90;;;;;;5030953;28;20278;-63
2023/05/06 08:43:58;;;;;;;0.90;0.90;;;20.40;99.90;;;;;;5031740;28;20201;-62
2023/05/06 08:46:29;;;;;;;1.10;1.10;;;20.50;99.90;;;;;;5032325;28;20208;-63
2023/05/06 08:48:56;;;;;;;1.00;1.00;;;20.60;99.90;;;;;;5032132;28;20205;-63
2023/05/06 08:51:28;;;;;;;0.95;0.95;;;20.80;99.90;;;;;;5030035;28;20228;-63
2023/05/06 08:53:55;;;;;;;1.20;1.00;;;21.00;99.90;;;;;;5031050;28;20312;-64
2023/05/06 08:56:28;;;;;;;1.10;1.00;;;20.90;99.90;;;;;;5037738;28;20253;-64
2023/05/06 08:58:57;;;;;;;0.90;0.90;;;20.90;99.90;;;;;;5030952;28;20687;-64
2023/05/06 09:01:27;;;;;;;0.90;0.90;;;21.00;99.90;;;;;;5030448;28;20643;-64
2023/05/06 09:03:55;;;;;;;0.95;0.95;;;21.20;99.90;;;;;;5031181;28;20258;-62
2023/05/06 09:06:23;;;;;;;0.85;0.85;;;21.20;99.90;;;;;;5030763;28;20555;-62
2023/05/06 09:08:50;;;;;;;0.80;0.80;;;20.90;99.90;;;;;;5032625;28;20251;-63
2023/05/06 09:11:22;;;;;;;0.98;0.98;;;20.90;99.90;;;;;;5035739;28;20251;-63
2023/05/06 09:13:50;;;;;;;1.05;0.95;;;21.10;99.90;;;;;;5041543;28;20717;-65
2023/05/06 09:16:30;;;;;;;1.77;1.00;;;21.20;99.90;;;;;;5033436;28;20204;-62
2023/05/06 09:18:58;;;;;;;0.77;0.77;;;21.50;99.90;;;;;;5026724;28;20279;-66
2023/05/06 09:21:32;;;;;;;0.77;0.77;;;21.70;99.90;;;;;;5020448;28;20239;-62
2023/05/06 09:23:59;;;;;;;0.90;0.90;;;21.70;99.90;;;;;;5019426;28;20676;-62
2023/05/06 09:26:27;;;;;;;0.70;0.70;;;21.90;99.90;;;;;;5019070;28;20200;-63
2023/05/06 09:28:54;;;;;;;0.82;0.82;;;22.30;99.90;;;;;;5019328;28;20205;-63
2023/05/06 09:31:21;;;;;;;1.00;1.00;;;22.30;99.90;;;;;;5019599;28;20224;-64
2023/05/06 09:33:50;;;;;;;1.77;1.13;;;22.20;99.90;;;;;;5016996;28;20300;-64
2023/05/06 09:36:17;;;;;;;1.40;1.30;;;22.00;99.90;;;;;;5023670;28;20224;-64
2023/05/06 09:38:44;;;;;;;1.17;1.08;;;21.80;99.90;;;;;;5023609;28;20233;-64
2023/05/06 09:41:12;;;;;;;1.10;1.00;;;21.70;99.90;;;;;;5028488;28;20220;-66
2023/05/06 09:43:40;;;;;;;1.05;1.00;;;21.70;99.90;;;;;;5035231;28;20196;-64
2023/05/06 09:46:08;;;;;;;1.00;1.00;;;21.60;99.90;;;;;;5027258;28;20251;-63
2023/05/06 09:48:36;;;;;;;0.90;0.90;;;21.60;99.90;;;;;;5024414;28;20205;-62
2023/05/06 09:51:06;;;;;;;0.98;0.95;;;21.70;99.90;;;;;;5021338;28;20217;-65
2023/05/06 09:53:34;;;;;;;0.90;0.90;;;22.00;99.90;;;;;;5019935;28;20221;-64
2023/05/06 09:56:03;;;;;;;0.90;0.90;;;22.10;99.90;;;;;;5012073;28;20209;-66
2023/05/06 09:58:31;;;;;;;1.10;1.00;;;22.00;99.90;;;;;;5013379;28;20236;-64
2023/05/06 10:00:59;;;;;;;0.90;0.90;;;22.10;99.90;;;;;;5011430;28;20247;-64
2023/05/06 10:03:27;;;;;;;1.15;1.00;;;22.20;99.90;;;;;;5010613;28;20209;-64
2023/05/06 10:05:59;;;;;;;0.75;0.75;;;22.00;99.90;;;;;;5011767;28;20598;-62
2023/05/06 10:08:27;;;;;;;0.80;0.80;;;21.70;99.90;;;;;;5011862;28;20209;-64
2023/05/06 10:10:55;;;;;;;0.80;0.80;;;21.80;99.90;;;;;;5009399;28;20248;-64
2023/05/06 10:13:23;;;;;;;0.98;0.98;;;22.00;99.90;;;;;;5010124;28;20320;-64
2023/05/06 10:15:52;;;;;;;0.98;0.98;;;22.20;99.90;;;;;;5011647;28;20209;-63
2023/05/06 10:18:21;;;;;;;1.00;1.00;;;22.40;99.90;;;;;;5010621;28;20563;-63
2023/05/06 10:20:52;;;;;;;0.90;0.90;;;22.60;99.90;;;;;;5009872;28;20248;-63
2023/05/06 10:23:25;;;;;;;0.80;0.80;;;22.70;99.90;;;;;;5010576;28;20207;-64
2023/05/06 10:25:57;;;;;;;0.80;0.80;;;22.70;99.90;;;;;;5011197;28;20259;-63
2023/05/06 10:28:24;;;;;;;0.88;0.88;;;22.50;99.90;;;;;;5011256;28;20313;-64
2023/05/06 10:30:52;;;;;;;0.90;0.90;;;22.60;99.90;;;;;;5009801;28;20236;-62
2023/05/06 10:33:21;;;;;;;1.00;1.00;;;22.70;99.90;;;;;;5009972;28;20227;-64
2023/05/06 10:35:54;;;;;;;0.90;0.90;;;22.90;99.90;;;;;;5008729;28;20303;-65
2023/05/06 10:38:26;;;;;;;1.02;1.02;;;22.80;99.90;;;;;;5011319;28;20668;-64
2023/05/06 10:40:56;;;;;;;1.10;1.10;;;22.60;99.90;;;;;;5009959;28;20229;-64
2023/05/06 10:43:25;;;;;;;0.80;0.80;;;22.80;99.90;;;;;;5010331;28;20664;-63
2023/05/06 10:46:03;;;;;;;0.80;0.80;;;23.00;99.90;;;;;;5009590;28;20554;-64
2023/05/06 10:48:31;;;;;;;1.00;1.00;;;23.00;99.90;;;;;;5010285;28;20209;-63
2023/05/06 10:51:27;;;;;;;1.48;1.38;;;22.80;99.90;;;;;;5009523;28;20784;-64
2023/05/06 10:54:02;;;;;;;1.13;1.13;;;22.60;99.90;;;;;;5010172;28;20247;-63
2023/05/06 10:56:32;;;;;;;0.80;0.80;;;22.40;99.90;;;;;;5010810;28;20209;-63
2023/05/06 10:59:06;;;;;;;1.10;1.10;;;22.70;99.90;;;;;;5010930;28;20201;-64
2023/05/06 11:01:33;;;;;;;1.05;1.05;;;22.80;99.90;;;;;;5009830;28;20240;-63
2023/05/06 11:04:05;;;;;;;0.90;0.90;;;22.70;99.90;;;;;;5009766;28;20638;-64
2023/05/06 11:06:40;;;;;;;1.00;1.00;;;22.70;99.90;;;;;;5010100;28;20259;-64
2023/05/06 11:09:16;;;;;;;1.33;1.23;;;22.80;99.90;;;;;;5009402;28;20212;-65
2023/05/06 11:12:05;;;;;;;0.95;0.95;;;23.00;99.90;;;;;;5009767;28;20233;-66
2023/05/06 11:14:34;;;;;;;1.20;1.20;;;23.00;99.90;;;;;;5033492;28;20228;-65
2023/05/06 11:17:02;;;;;;;1.20;1.20;;;22.80;99.90;;;;;;5046494;28;20204;-65
2023/05/06 11:19:31;;;;;;;1.00;1.00;;;22.70;99.90;;;;;;5044216;28;20223;-65
2023/05/06 11:21:59;;;;;;;1.17;1.10;;;22.70;99.90;;;;;;5053417;28;20228;-65
2023/05/06 11:24:27;;;;;;;0.98;0.98;;;22.90;99.90;;;;;;5044483;28;20204;-65
2023/05/06 11:26:55;;;;;;;0.90;0.90;;;23.10;99.90;;;;;;5037082;28;20214;-66
2023/05/06 11:29:24;;;;;;;0.90;0.90;;;23.20;99.90;;;;;;5042037;28;20205;-64
2023/05/06 11:31:52;;;;;;;0.80;0.80;;;23.10;99.90;;;;;;5044286;28;20234;-64
2023/05/06 11:34:23;;;;;;;0.90;0.90;;;23.20;99.90;;;;;;5044532;28;20259;-63
2023/05/06 11:36:53;;;;;;;1.85;1.00;;;23.20;99.90;;;;;;5049659;28;20267;-64
2023/05/06 11:39:20;;;;;;;0.73;0.73;;;23.60;99.90;;;;;;5032388;28;20208;-64
2023/05/06 11:41:47;;;;;;;1.00;1.00;;;23.80;99.90;;;;;;5033333;28;20228;-64
2023/05/06 11:44:30;;;;;;;1.10;0.98;;;23.70;99.90;;;;;;5042993;28;20207;-64
2023/05/06 11:46:57;;;;;;;0.80;0.80;;;23.60;99.90;;;;;;5043652;28;20679;-62
2023/05/06 11:49:26;;;;;;;1.08;1.08;;;23.60;99.90;;;;;;5049406;28;20208;-64
2023/05/06 11:51:52;;;;;;;0.80;0.80;;;23.50;99.90;;;;;;5050803;28;20221;-63
2023/05/06 11:54:21;;;;;;;0.70;0.70;;;23.00;99.90;;;;;;5029645;28;20239;-63
2023/05/06 11:56:50;;;;;;;0.90;0.90;;;23.10;99.90;;;;;;5027773;28;20197;-64
2023/05/06 11:59:18;;;;;;;0.90;0.90;;;23.30;99.90;;;;;;5029022;28;20197;-64
2023/05/06 12:01:47;;;;;;;0.93;0.93;;;23.20;99.90;;;;;;5020510;28;20279;-64
2023/05/06 12:04:13;;;;;;;0.70;0.70;;;23.30;99.90;;;;;;5028795;28;20227;-64
2023/05/06 12:06:41;;;;;;;0.80;0.80;;;23.30;99.90;;;;;;5031161;28;20291;-65
2023/05/06 12:09:11;;;;;;;0.80;0.80;;;23.30;99.90;;;;;;5026197;28;20201;-64
2023/05/06 12:11:40;;;;;;;0.90;0.73;;;23.40;99.90;;;;;;5032114;28;20228;-65
2023/05/06 12:14:08;;;;;;;1.00;0.90;;;23.60;99.90;;;;;;5026665;28;20236;-64
2023/05/06 12:16:36;;;;;;;0.70;0.70;;;23.70;99.90;;;;;;5023987;28;20201;-63
2023/05/06 12:19:05;;;;;;;0.73;0.73;;;23.60;99.90;;;;;;5028171;28;20270;-64
2023/05/06 12:21:32;;;;;;;0.75;0.75;;;23.80;99.90;;;;;;5023517;28;20221;-64
2023/05/06 12:24:00;;;;;;;0.70;0.70;;;23.90;99.90;;;;;;5026173;28;20247;-64
2023/05/06 12:26:29;;;;;;;0.80;0.80;;;23.90;99.90;;;;;;5022750;28;20205;-64
2023/05/06 12:29:07;;;;;;;1.30;1.20;;;23.70;99.90;;;;;;5022757;28;20227;-65
2023/05/06 12:31:34;;;;;;;0.70;0.70;;;23.50;99.90;;;;;;5021574;28;20283;-65
2023/05/06 12:34:01;;;;;;;0.80;0.80;;;23.30;99.90;;;;;;5019437;28;20224;-63
2023/05/06 12:36:31;;;;;;;0.68;0.68;;;23.20;99.90;;;;;;5023008;28;20193;-64
2023/05/06 12:38:59;;;;;;;0.75;0.75;;;23.30;99.90;;;;;;5023196;28;20256;-64
2023/05/06 12:41:36;;;;;;;1.10;0.70;;;23.70;99.90;;;;;;5023589;28;20216;-64
2023/05/06 12:44:03;;;;;;;0.63;0.63;;;23.90;99.90;;;;;;5022776;28;20282;-65
2023/05/06 12:46:30;;;;;;;0.73;0.73;;;24.00;99.90;;;;;;5022126;28;20198;-63
2023/05/06 12:48:58;;;;;;;0.70;0.70;;;23.80;99.90;;;;;;5020278;28;20254;-64
2023/05/06 12:51:25;;;;;;;0.70;0.70;;;23.70;99.90;;;;;;5022682;28;20299;-63
2023/05/06 12:53:54;;;;;;;0.80;0.80;;;23.90;99.90;;;;;;5022801;28;20228;-64